Detalii statie MIRACOM [00001CFF]

Toti senzorii

Date Temperatura solului [C]Precipitatii [mm]Voltaj baterie [mV]Leaf Wetness [Min]HC Air temperature [C]HC Relative humidity [%]Punctul de roua [C]
medieminmaxsumaultimatimpmedieminmaxmediemediemin
2018-12-09 15:00:00 -0.4 -0.5 -0.4 0 7158 4.43 4.3 4.51 0 0 0
2018-12-09 16:00:00 -0.4 -0.5 -0.4 0 7118 4.16 3.96 4.32 0 0 0
2018-12-09 17:00:00 -0.4 -0.6 -0.4 0 7050 3.62 3.41 3.86 0 0 0
2018-12-09 18:00:00 -0.5 -0.6 -0.5 0 7010 3.26 3 3.44 0 0 0
2018-12-09 19:00:00 -0.5 -0.6 -0.4 0 6992 3.22 3.1 3.32 0 0 0
2018-12-09 20:00:00 -0.5 -0.6 -0.4 0 6982 3.24 3.09 3.36 0 0 0
2018-12-09 21:00:00 -0.5 -0.7 -0.4 0 6952 2.98 2.88 3.08 0 0 0
2018-12-09 22:00:00 -0.5 -0.7 -0.4 0 6942 2.94 2.87 3.01 0 0 0
2018-12-09 23:00:00 -0.4 -0.5 -0.4 0 6942 2.59 2.4 2.83 0 0 0
2018-12-10 00:00:00 -0.5 -0.6 -0.3 0 6932 2.43 2.4 2.47 0 0 0
2018-12-10 01:00:00 -0.5 -0.6 -0.4 0 6922 2.27 2.12 2.41 0 0 0
2018-12-10 02:00:00 -0.4 -0.6 -0.3 0 6922 2.26 2.11 2.43 0 0 0
2018-12-10 03:00:00 -0.3 -0.6 -0.3 0 6922 2.37 2.35 2.44 0 0 0
2018-12-10 04:00:00 -0.2 -0.4 -0.2 0 6914 2.11 1.9 2.31 0 0 0
2018-12-10 05:00:00 -0.3 -0.5 -0.1 0 6904 1.6 1.4 1.8 0 0 0
2018-12-10 06:00:00 -0.2 -0.5 -0.1 0 6904 1.3 1.21 1.43 0 0 0
2018-12-10 07:00:00 -0.1 -0.4 -0.1 0 6894 1.07 0.83 1.23 0 0 0
2018-12-10 08:00:00 -0.1 -0.3 -0.1 0 6884 0.39 0.07 0.83 0 0 0
2018-12-10 09:00:00 -0.1 -0.2 -0.1 0 6874 -0.21 -0.64 0.21 0.69 0
2018-12-10 10:00:00 -0.1 -0.2 -0.1 0 7000 -0.32 -0.55 -0.09 2.17 0
2018-12-10 11:00:00 0 -0.2 0 0 7088 0.51 -0.22 1.02 17.8 0
2018-12-10 12:00:00 0 0 0.3 0 7226 1.86 0.98 2.54 4.32 0
2018-12-10 13:00:00 0.3 0.1 0.6 0 7246 2.84 2.51 3.23 0 0 0
2018-12-10 14:00:00 0.7 0.5 0.8 0 7372 3.68 3.03 4.39 0 0 0
2018-12-10 15:00:00 1.2 1 1.4 0 7284 4.73 4.29 5.43 0 0 0
2018-12-10 16:00:00 1.3 1.1 1.4 0 7166 4.05 3.55 4.39 0 0 0
2018-12-10 17:00:00 1.3 1.3 1.4 0 7098 2.98 2.41 3.54 0 0 0
2018-12-10 18:00:00 1.1 1.1 1.3 0 7070 2.02 1.77 2.26 0 0 0
2018-12-10 19:00:00 1 0.9 1.2 0 7050 1.66 1.47 1.76 0 0 0
2018-12-10 20:00:00 0.9 0.7 1 0 7040 1.26 1.21 1.4 0 0 0
2018-12-10 21:00:00 0.8 0.8 0.9 0 7020 1.37 1.26 1.55 0 0 0
2018-12-10 22:00:00 0.7 0.6 0.9 0 7020 1.4 1.23 1.56 0 0 0
2018-12-10 23:00:00 0.7 0.6 0.9 0 7010 1.23 0.98 1.45 0 0 0
2018-12-11 00:00:00 0.7 0.5 0.8 0 6992 0.9 0.64 1.02 0 0 0
2018-12-11 01:00:00 0.6 0.6 0.8 0 6972 0.14 -0.26 0.51 0 0 0
2018-12-11 02:00:00 0.5 0.4 0.7 0 6962 -0.56 -0.71 -0.32 0 0 0
2018-12-11 03:00:00 0.4 0.3 0.6 0 6952 -0.71 -0.86 -0.61 0 0 0
2018-12-11 04:00:00 0.3 0.2 0.4 0 6942 -0.54 -0.72 -0.35 0 0 0
2018-12-11 05:00:00 0.2 0.1 0.3 0 6932 0.01 -0.34 0.34 0 0 0
2018-12-11 06:00:00 0.1 0.1 0.2 0 6922 0.4 0.3 0.54 0 0 0
2018-12-11 07:00:00 0.1 0.1 0.2 0 6904 0.62 0.47 0.78 0 0 0
2018-12-11 08:00:00 0.2 0.1 0.3 0 6904 0.73 0.5 1.15 0 0 0
2018-12-11 09:00:00 0.2 0.1 0.3 0 6914 0.47 0.44 0.53 0 0 0
2018-12-11 10:00:00 0.2 0.1 0.5 0 6922 1.05 0.61 1.39 0 0 0
2018-12-11 11:00:00 0.5 0.3 0.7 0 6952 1.94 1.55 2.33 0 0 0
2018-12-11 12:00:00 0.7 0.6 1 0 7138 3.21 2.34 4.31 0 0 0